Hof, Germany

10:44 PM CET on February 08, 2016 (GMT +0100)
IBAVARIA14 | | Change Station
CLOSE
Current Station
Personal Weather Station
Location: Leupoldsgruen 624m, BAVARIA
Elevation: 2050 ft
Nearby Weather Stations

Elev 2050 ft 50.29 °N, 11.79 °E | Updated 7 minutes ago

Scattered Clouds
Scattered Clouds
36.7 °F
Feels Like 27 °F
N
16.2
Wind Variable Wind from WSW
Gusts 19.0 mph

Today
High -- | Low -- °F
--% Chance of Precip.
Yesterday
High -- | Low -- °F
Precip. -- in
Pressure 29.66 in
Visibility 6.2 miles
Clouds Few 2700 ft
Scattered Clouds 6000 ft
Scattered Clouds 9000 ft
Windchill 27 °F
Dew Point 34 °F
Humidity 89%
Rainfall 0.42 in
Snow Depth Not available.
7:37 AM 5:17 PM
New Moon, 0% visible
METAR ETIC 082058Z AUTO 24008KT 200V270 9999 FEW027 SCT060 SCT090 05/03 A2962 RMK AO2 SLP044 60003 T00470025 52021
Pressure 29.66 in
Visibility 6.2 miles
Clouds Few 2700 ft
Scattered Clouds 6000 ft
Scattered Clouds 9000 ft
Windchill 27 °F
Dew Point 34 °F
Humidity 89%
Rainfall 0.42 in
Snow Depth Not available.
7:37 AM 5:17 PM
New Moon, 0% visible
METAR ETIC 082058Z AUTO 24008KT 200V270 9999 FEW027 SCT060 SCT090 05/03 A2962 RMK AO2 SLP044 60003 T00470025 52021

10-Day Weather Forecast

Almanac

Astronomy

Feb. 08, 2016 Rise Set
Actual Time
Civil Twilight
Nautical Twilight
Astronomical Twilight
Moon
Length of Visible Light
Length of Day
Tomorrow will be .
, % of the Moon is Illuminated

Today's Extremes

Country Highs Country Lows

Community

WunderPhotos

Upload Photos

1,891,512 photos uploaded!

WunderBlog® & News

Nearby

Air Quality

  Air Quality AQ Index Pollutant
Not available.

Snow Depth

Station Depth Elevation

Earthquake Activity

City Distance Mag. Time & Date
Minimum magnitude displayed is 2.5.

Coastal Water Temperatures

Place Temperature

Stations

Nearby Weather Stations

Station Location Temp. Windchill Dew Point Humidity Wind Precip. Elev Updated Type